createdAt,value
2018-12-11T00:01:54.179Z,1.17
2018-12-11T00:04:20.074Z,1.10
2018-12-11T00:06:50.102Z,1.50
2018-12-11T00:09:15.966Z,2.90
2018-12-11T00:11:41.838Z,1.83
2018-12-11T00:14:07.755Z,1.37
2018-12-11T00:16:33.784Z,1.30
2018-12-11T00:19:01.225Z,1.50
2018-12-11T00:21:27.103Z,1.15
2018-12-11T00:23:55.439Z,1.37
2018-12-11T00:26:21.307Z,1.12
2018-12-11T00:28:51.076Z,1.10
2018-12-11T00:31:16.985Z,1.50
2018-12-11T00:33:46.186Z,1.07
2018-12-11T00:36:12.065Z,1.47
2018-12-11T00:38:39.957Z,1.10
2018-12-11T00:41:10.568Z,1.10
2018-12-11T00:43:36.591Z,1.55
2018-12-11T00:46:02.529Z,1.30
2018-12-11T00:48:28.385Z,1.13
2018-12-11T00:50:54.283Z,1.03
2018-12-11T00:53:20.187Z,1.63
2018-12-11T00:55:46.050Z,1.33
2018-12-11T00:58:11.953Z,1.50
2018-12-11T01:00:40.813Z,1.20
2018-12-11T01:03:06.701Z,1.17
2018-12-11T01:05:36.387Z,1.00
2018-12-11T01:08:02.367Z,1.30
2018-12-11T01:10:31.835Z,1.75
2018-12-11T01:12:57.695Z,1.20
2018-12-11T01:15:25.436Z,1.47
2018-12-11T01:17:51.357Z,1.12
2018-12-11T01:20:21.137Z,1.33
2018-12-11T01:22:47.067Z,1.32
2018-12-11T01:25:13.059Z,1.10
2018-12-11T01:27:38.959Z,2.12
2018-12-11T01:30:05.082Z,1.20
2018-12-11T01:32:32.272Z,1.32
2018-12-11T01:34:58.173Z,1.20
2018-12-11T01:37:27.874Z,0.93
2018-12-11T01:39:53.776Z,1.57
2018-12-11T01:42:20.712Z,1.80
2018-12-11T01:44:46.561Z,1.40
2018-12-11T01:47:15.236Z,1.20
2018-12-11T01:49:41.145Z,1.27
2018-12-11T01:52:10.005Z,1.07
2018-12-11T01:54:35.894Z,0.90
2018-12-11T01:57:04.815Z,0.90
2018-12-11T01:59:30.711Z,0.90
2018-12-11T02:01:56.588Z,1.53
2018-12-11T02:04:22.481Z,1.00
2018-12-11T02:06:48.384Z,1.37
2018-12-11T02:09:17.560Z,0.93
2018-12-11T02:11:43.454Z,1.12
2018-12-11T02:14:11.276Z,1.23
2018-12-11T02:16:37.152Z,1.02
2018-12-11T02:19:06.968Z,1.33
2018-12-11T02:21:32.904Z,1.40
2018-12-11T02:24:00.690Z,0.93
2018-12-11T02:26:26.557Z,2.07
2018-12-11T02:28:56.373Z,1.20
2018-12-11T02:31:22.275Z,1.60
2018-12-11T02:33:49.956Z,1.07
2018-12-11T02:36:15.979Z,1.57
2018-12-11T02:38:41.848Z,1.42
2018-12-11T02:41:07.754Z,0.90
2018-12-11T02:43:33.650Z,1.30
2018-12-11T02:46:02.050Z,1.40
2018-12-11T02:48:27.970Z,1.20
2018-12-11T02:50:56.324Z,1.00
2018-12-11T02:53:22.253Z,3.27
2018-12-11T02:58:19.350Z,1.05
2018-12-11T03:00:46.035Z,2.20
2018-12-11T03:03:11.954Z,1.10
2018-12-11T03:05:41.612Z,1.30
2018-12-11T03:08:07.828Z,1.35
2018-12-11T03:10:35.467Z,1.20
2018-12-11T03:13:01.337Z,1.35
2018-12-11T03:15:27.207Z,2.03
2018-12-11T03:17:53.227Z,1.22
2018-12-11T03:20:24.459Z,1.20
2018-12-11T03:22:50.645Z,1.60
2018-12-11T03:25:16.525Z,1.00
2018-12-11T03:27:42.378Z,1.50
2018-12-11T03:30:08.432Z,1.50
2018-12-11T03:32:37.717Z,1.37
2018-12-11T03:35:03.725Z,1.50
2018-12-11T03:37:33.139Z,1.10
2018-12-11T03:39:59.040Z,1.60
2018-12-11T03:42:26.749Z,1.70
2018-12-11T03:44:52.617Z,1.00
2018-12-11T03:47:22.477Z,1.30
2018-12-11T03:49:48.384Z,1.00
2018-12-11T03:52:21.142Z,1.30
2018-12-11T03:54:42.199Z,1.30
2018-12-11T03:57:08.127Z,1.67
2018-12-11T03:59:34.069Z,1.17
2018-12-11T04:01:59.993Z,1.40
2018-12-11T04:04:27.235Z,1.33
2018-12-11T04:06:53.096Z,2.35
2018-12-11T04:09:21.732Z,1.27
2018-12-11T04:11:47.619Z,1.35
2018-12-11T04:16:44.750Z,1.65
2018-12-11T04:19:11.871Z,1.12
2018-12-11T04:21:37.867Z,1.55
2018-12-11T04:24:07.595Z,1.42
2018-12-11T04:26:33.477Z,1.82
2018-12-11T04:28:59.512Z,1.15
2018-12-11T04:31:25.399Z,1.30
2018-12-11T04:33:51.273Z,1.73
2018-12-11T04:36:18.467Z,1.40
2018-12-11T04:38:44.372Z,1.80
2018-12-11T04:41:14.239Z,1.67
2018-12-11T04:43:40.270Z,2.12
2018-12-11T04:46:07.929Z,1.70
2018-12-11T04:48:33.788Z,2.22
2018-12-11T04:51:03.620Z,1.97
2018-12-11T04:53:29.511Z,2.17
2018-12-11T04:55:57.402Z,1.70
2018-12-11T04:58:23.410Z,2.25
2018-12-11T05:00:53.060Z,2.35
2018-12-11T05:03:23.925Z,1.60
2018-12-11T05:05:50.393Z,1.32
2018-12-11T05:08:16.267Z,1.83
2018-12-11T05:10:42.127Z,1.57
2018-12-11T05:13:08.023Z,1.40
2018-12-11T05:15:33.897Z,1.97
2018-12-11T05:17:59.823Z,2.10
2018-12-11T05:20:25.753Z,2.03
2018-12-11T05:22:52.792Z,3.00
2018-12-11T05:25:18.740Z,2.40
2018-12-11T05:27:48.315Z,2.30
2018-12-11T05:30:14.177Z,1.85
2018-12-11T05:32:43.161Z,2.60
2018-12-11T05:35:09.068Z,2.25
2018-12-11T05:37:36.820Z,2.43
2018-12-11T05:40:03.370Z,1.80
2018-12-11T05:42:29.281Z,1.45
2018-12-11T05:44:55.180Z,1.30
2018-12-11T05:47:21.075Z,1.57
2018-12-11T05:49:49.309Z,2.07
2018-12-11T05:52:15.215Z,2.08
2018-12-11T05:54:44.471Z,1.50
2018-12-11T05:57:10.376Z,2.10
2018-12-11T05:59:38.136Z,1.30
2018-12-11T06:02:04.039Z,1.55
2018-12-11T06:04:33.726Z,1.90
2018-12-11T06:06:59.719Z,1.30
2018-12-11T06:09:28.749Z,1.50
2018-12-11T06:11:54.633Z,1.57
2018-12-11T06:14:23.636Z,2.73
2018-12-11T06:16:49.549Z,11.20
2018-12-11T06:19:15.669Z,2.37
2018-12-11T06:21:41.595Z,2.52
2018-12-11T06:24:07.515Z,1.47
2018-12-11T06:26:34.191Z,1.60
2018-12-11T06:29:00.064Z,2.08
2018-12-11T06:31:28.747Z,2.20
2018-12-11T06:33:54.619Z,1.52
2018-12-11T06:36:24.470Z,2.53
2018-12-11T06:38:50.329Z,2.12
2018-12-11T06:41:19.376Z,2.77
2018-12-11T06:43:45.258Z,2.47
2018-12-11T06:46:14.322Z,2.47
2018-12-11T06:48:40.238Z,3.05
2018-12-11T06:51:07.989Z,2.12
2018-12-11T06:53:33.856Z,2.45
2018-12-11T06:55:59.744Z,1.87
2018-12-11T06:58:25.820Z,1.73
2018-12-11T07:00:51.758Z,1.07
2018-12-11T07:03:20.979Z,2.00
2018-12-11T07:05:46.902Z,3.70
2018-12-11T07:08:15.815Z,2.00
2018-12-11T07:10:41.693Z,1.90
2018-12-11T07:13:08.504Z,2.00
2018-12-11T07:15:34.376Z,2.33
2018-12-11T07:18:03.002Z,2.43
2018-12-11T07:20:28.914Z,1.90
2018-12-11T07:22:57.789Z,2.80
2018-12-11T07:25:23.715Z,2.37
2018-12-11T07:27:52.474Z,3.73
2018-12-11T07:30:18.392Z,2.20
2018-12-11T07:32:44.961Z,2.30
2018-12-11T07:35:17.830Z,1.42
2018-12-11T07:37:44.952Z,1.75
2018-12-11T07:40:10.836Z,2.20
2018-12-11T07:42:36.749Z,1.83
2018-12-11T07:45:03.196Z,1.90
2018-12-11T07:47:29.110Z,2.75
2018-12-11T07:49:54.985Z,1.47
2018-12-11T07:52:20.879Z,2.10
2018-12-11T07:54:48.558Z,1.90
2018-12-11T07:57:14.427Z,2.35
2018-12-11T07:59:43.270Z,1.70
2018-12-11T08:02:09.132Z,1.60
2018-12-11T08:04:37.864Z,2.13
2018-12-11T08:07:03.748Z,2.52
2018-12-11T08:09:29.758Z,2.20
2018-12-11T08:11:55.724Z,1.98
2018-12-11T08:14:21.593Z,2.10
2018-12-11T08:16:50.777Z,2.30
2018-12-11T08:19:16.909Z,4.10
2018-12-11T08:21:44.723Z,2.55
2018-12-11T08:24:10.621Z,2.80
2018-12-11T08:26:39.527Z,2.30
2018-12-11T08:29:05.466Z,1.85
2018-12-11T08:31:34.397Z,2.80
2018-12-11T08:34:00.298Z,2.10
2018-12-11T08:36:30.073Z,1.40
2018-12-11T08:38:55.994Z,1.70
2018-12-11T08:41:23.842Z,1.40
2018-12-11T08:43:49.734Z,1.77
2018-12-11T08:46:15.592Z,1.63
2018-12-11T08:48:41.544Z,2.90
2018-12-11T08:51:07.456Z,1.80
2018-12-11T08:53:36.578Z,4.30
2018-12-11T08:56:02.606Z,4.25
2018-12-11T08:58:30.263Z,4.95
2018-12-11T09:00:56.390Z,4.08
2018-12-11T09:03:26.193Z,3.40
2018-12-11T09:05:52.102Z,5.22
2018-12-11T09:08:19.846Z,5.30
2018-12-11T09:10:45.732Z,2.12
2018-12-11T09:13:15.582Z,2.43
2018-12-11T09:15:41.495Z,3.25
2018-12-11T09:18:09.298Z,2.00
2018-12-11T09:20:35.191Z,1.37
2018-12-11T09:23:01.064Z,1.93
2018-12-11T09:25:26.958Z,1.97
2018-12-11T09:27:52.867Z,1.40
2018-12-11T09:30:20.257Z,1.70
2018-12-11T09:32:52.763Z,1.70
2018-12-11T09:35:19.201Z,1.57
2018-12-11T09:37:45.102Z,1.67
2018-12-11T09:40:10.992Z,1.50
2018-12-11T09:42:36.992Z,3.17
2018-12-11T09:45:05.994Z,1.87
2018-12-11T09:47:31.853Z,1.75
2018-12-11T09:49:59.282Z,1.80
2018-12-11T09:52:25.181Z,1.45
2018-12-11T09:54:54.173Z,2.00
2018-12-11T09:57:20.028Z,2.58
2018-12-11T09:59:45.944Z,2.73
2018-12-11T10:02:11.853Z,2.13
2018-12-11T10:04:37.743Z,1.77
2018-12-11T10:07:06.734Z,1.73
2018-12-11T10:09:32.643Z,1.70
2018-12-11T10:12:00.285Z,2.33
2018-12-11T10:14:26.199Z,3.08
2018-12-11T10:16:55.140Z,1.80
2018-12-11T10:19:21.031Z,1.37
2018-12-11T10:21:50.799Z,1.73
2018-12-11T10:24:16.690Z,1.50
2018-12-11T10:26:44.719Z,2.00
2018-12-11T10:29:10.626Z,2.37
2018-12-11T10:31:40.753Z,2.53
2018-12-11T10:34:06.630Z,1.90
2018-12-11T10:36:32.519Z,1.97
2018-12-11T10:38:58.417Z,3.23
2018-12-11T10:41:24.306Z,1.30
2018-12-11T10:43:51.034Z,1.30
2018-12-11T10:46:16.932Z,1.27
2018-12-11T10:48:45.750Z,1.43
2018-12-11T10:51:11.621Z,1.72
2018-12-11T10:53:40.545Z,1.70
2018-12-11T10:56:06.482Z,2.42
2018-12-11T10:58:35.945Z,1.30
2018-12-11T11:01:07.877Z,2.20
2018-12-11T11:03:33.713Z,1.90
2018-12-11T11:05:59.605Z,1.40
2018-12-11T11:08:25.447Z,2.40
2018-12-11T11:10:51.320Z,1.70
2018-12-11T11:13:23.392Z,1.40
2018-12-11T11:15:49.494Z,1.77
2018-12-11T11:18:15.380Z,1.97
2018-12-11T11:20:41.251Z,1.83
2018-12-11T11:23:07.119Z,1.70
2018-12-11T11:25:33.009Z,1.30
2018-12-11T11:27:58.863Z,1.30
2018-12-11T11:30:26.499Z,1.80
2018-12-11T11:32:52.447Z,1.50
2018-12-11T11:35:22.235Z,1.70
2018-12-11T11:37:48.083Z,1.35
2018-12-11T11:40:15.124Z,1.40
2018-12-11T11:42:41.156Z,1.72
2018-12-11T11:45:10.951Z,1.82
2018-12-11T11:47:36.819Z,3.87
2018-12-11T11:50:04.980Z,1.70
2018-12-11T11:52:30.860Z,2.00
2018-12-11T11:54:56.859Z,1.77
2018-12-11T11:57:29.561Z,1.20
2018-12-11T11:59:50.996Z,1.77
2018-12-11T12:02:16.907Z,1.60
2018-12-11T12:04:42.865Z,1.90
2018-12-11T12:07:12.717Z,1.63
2018-12-11T12:09:38.575Z,1.55
2018-12-11T12:12:06.446Z,1.40
2018-12-11T12:14:32.321Z,2.30
2018-12-11T12:17:02.351Z,1.60
2018-12-11T12:19:28.313Z,2.15
2018-12-11T12:21:55.003Z,1.20
2018-12-11T12:24:20.863Z,1.80
2018-12-11T12:26:46.723Z,1.63
2018-12-11T12:29:12.603Z,1.73
2018-12-11T12:31:38.451Z,1.60
2018-12-11T12:34:07.218Z,1.70
2018-12-11T12:36:33.107Z,1.70
2018-12-11T12:39:02.320Z,2.10
2018-12-11T12:41:28.208Z,1.92
2018-12-11T12:43:57.367Z,2.00
2018-12-11T12:46:23.237Z,1.60
2018-12-11T12:48:51.053Z,1.67
2018-12-11T12:51:16.915Z,1.80
2018-12-11T12:53:45.797Z,1.40
2018-12-11T12:56:11.692Z,1.70
2018-12-11T12:58:40.446Z,2.20
2018-12-11T13:01:06.309Z,1.82
2018-12-11T13:03:32.397Z,1.70
2018-12-11T13:05:58.347Z,1.62
2018-12-11T13:08:24.211Z,1.60
2018-12-11T13:10:53.524Z,2.07
2018-12-11T13:13:19.415Z,1.35
2018-12-11T13:15:47.180Z,1.65
2018-12-11T13:18:13.110Z,2.45
2018-12-11T13:20:41.759Z,1.55
2018-12-11T13:23:07.621Z,1.20
2018-12-11T13:25:36.324Z,1.60
2018-12-11T13:28:02.184Z,2.67
2018-12-11T13:32:59.420Z,1.30
2018-12-11T13:35:26.881Z,5.10
2018-12-11T13:37:52.887Z,2.33
2018-12-11T13:40:18.892Z,1.55
2018-12-11T13:42:44.791Z,2.07
2018-12-11T13:45:10.775Z,2.90
2018-12-11T13:47:38.059Z,19.37
2018-12-11T13:50:04.034Z,3.15
2018-12-11T13:52:32.750Z,1.73
2018-12-11T13:54:58.627Z,1.62
2018-12-11T13:57:28.363Z,1.43
2018-12-11T13:59:55.108Z,1.82
2018-12-11T14:02:22.343Z,2.00
2018-12-11T14:04:48.868Z,1.60
2018-12-11T14:07:18.026Z,2.20
2018-12-11T14:09:43.933Z,2.10
2018-12-11T14:12:12.836Z,2.03
2018-12-11T14:14:38.735Z,2.90
2018-12-11T14:17:04.609Z,3.53
2018-12-11T14:19:30.515Z,2.87
2018-12-11T14:21:56.409Z,3.00
2018-12-11T14:24:23.733Z,1.83
2018-12-11T14:26:49.619Z,2.15
2018-12-11T14:29:19.272Z,2.30
2018-12-11T14:31:46.206Z,2.55
2018-12-11T14:34:13.091Z,3.10
2018-12-11T14:36:39.042Z,3.55
2018-12-11T14:39:09.007Z,4.07
2018-12-11T14:41:34.906Z,6.70
2018-12-11T14:44:02.703Z,3.10
2018-12-11T14:46:28.623Z,3.47
2018-12-11T14:48:58.319Z,3.20
2018-12-11T14:51:24.231Z,1.95
2018-12-11T14:53:50.095Z,1.87
2018-12-11T14:56:16.714Z,2.53
2018-12-11T14:58:42.831Z,1.57
2018-12-11T15:01:08.731Z,1.93
2018-12-11T15:03:34.625Z,2.10
2018-12-11T15:06:03.521Z,1.93
2018-12-11T15:08:29.423Z,1.85
2018-12-11T15:10:59.391Z,1.70
2018-12-11T15:13:25.312Z,1.95
2018-12-11T15:16:01.087Z,1.80
2018-12-11T15:18:27.728Z,2.80
2018-12-11T15:20:53.584Z,2.10
2018-12-11T15:23:19.498Z,2.40
2018-12-11T15:25:45.436Z,2.60
2018-12-11T15:28:11.375Z,2.53
2018-12-11T15:30:43.494Z,2.40
2018-12-11T15:33:09.963Z,3.05
2018-12-11T15:35:35.848Z,2.50
2018-12-11T15:38:01.741Z,2.30
2018-12-11T15:40:27.612Z,2.63
2018-12-11T15:42:53.709Z,3.17
2018-12-11T15:45:20.471Z,6.75
2018-12-11T15:47:46.333Z,4.70
2018-12-11T15:50:12.242Z,8.00
2018-12-11T15:52:38.094Z,7.97
2018-12-11T15:55:05.824Z,4.93
2018-12-11T15:57:32.519Z,4.00
2018-12-11T15:59:58.425Z,8.00
2018-12-11T16:02:27.238Z,5.33
2018-12-11T16:04:53.119Z,4.50
2018-12-11T16:07:19.002Z,4.97
2018-12-11T16:09:44.937Z,4.70
2018-12-11T16:12:10.820Z,4.07
2018-12-11T16:14:39.689Z,5.50
2018-12-11T16:17:05.623Z,6.83
2018-12-11T16:19:34.949Z,4.27
2018-12-11T16:22:00.882Z,4.03
2018-12-11T16:24:28.640Z,3.90
2018-12-11T16:26:54.546Z,3.45
2018-12-11T16:29:24.246Z,5.70
2018-12-11T16:31:50.142Z,5.65
2018-12-11T16:34:19.159Z,4.03
2018-12-11T16:36:45.101Z,6.27
2018-12-11T16:39:13.519Z,5.33
2018-12-11T16:41:39.417Z,3.95
2018-12-11T16:44:05.342Z,2.43
2018-12-11T16:46:31.235Z,3.30
2018-12-11T16:48:57.144Z,3.97
2018-12-11T16:51:25.045Z,3.90
2018-12-11T16:53:51.093Z,3.90
2018-12-11T16:56:20.949Z,4.50
2018-12-11T16:58:46.861Z,6.00
2018-12-11T17:01:15.310Z,5.10
2018-12-11T17:03:41.183Z,3.50
2018-12-11T17:06:08.426Z,4.93
2018-12-11T17:08:34.374Z,5.30
2018-12-11T17:11:03.422Z,6.30
2018-12-11T17:13:29.295Z,6.33
2018-12-11T17:15:59.354Z,8.00
2018-12-11T17:18:25.238Z,6.90
2018-12-11T17:20:51.455Z,5.40
2018-12-11T17:23:17.351Z,6.00
2018-12-11T17:25:43.227Z,5.73
2018-12-11T17:28:09.717Z,5.57
2018-12-11T17:30:35.774Z,5.55
2018-12-11T17:33:05.419Z,4.72
2018-12-11T17:35:31.320Z,3.92
2018-12-11T17:38:00.295Z,3.47
2018-12-11T17:40:26.265Z,3.60
2018-12-11T17:42:54.128Z,2.87
2018-12-11T17:45:20.030Z,3.22
2018-12-11T17:47:49.654Z,3.97
2018-12-11T17:50:15.530Z,2.87
2018-12-11T17:52:43.275Z,3.03
2018-12-11T17:55:09.160Z,3.95
2018-12-11T17:57:35.130Z,5.67
2018-12-11T18:00:02.438Z,7.80
2018-12-11T18:02:28.922Z,7.45
2018-12-11T18:04:55.359Z,5.33
2018-12-11T18:07:21.238Z,7.08
2018-12-11T18:12:20.752Z,6.83
2018-12-11T18:14:46.602Z,7.15
2018-12-11T18:17:12.482Z,6.00
2018-12-11T18:19:39.398Z,6.70
2018-12-11T18:22:05.266Z,6.33
2018-12-11T18:24:34.032Z,6.30
2018-12-11T18:26:59.899Z,7.65
2018-12-11T18:29:29.838Z,7.17
2018-12-11T18:31:55.996Z,6.50
2018-12-11T18:34:22.468Z,7.60
2018-12-11T18:36:48.635Z,6.80
2018-12-11T18:39:14.772Z,7.28
2018-12-11T18:41:40.719Z,8.63
2018-12-11T18:44:06.616Z,7.70
2018-12-11T18:46:35.375Z,10.37
2018-12-11T18:49:01.374Z,9.85
2018-12-11T18:51:30.333Z,12.03
2018-12-11T18:53:56.230Z,8.28
2018-12-11T18:56:25.147Z,8.67
2018-12-11T18:58:51.051Z,6.42
2018-12-11T19:01:20.915Z,4.67
2018-12-11T19:03:49.425Z,4.70
2018-12-11T19:06:14.732Z,4.90
2018-12-11T19:08:40.617Z,3.97
2018-12-11T19:11:06.484Z,4.23
2018-12-11T19:13:32.413Z,6.97
2018-12-11T19:15:58.631Z,8.13
2018-12-11T19:18:26.958Z,6.78
2018-12-11T19:20:53.048Z,4.03
2018-12-11T19:23:24.173Z,5.75
2018-12-11T19:25:50.212Z,5.93
2018-12-11T19:28:16.100Z,5.67
2018-12-11T19:30:42.000Z,5.20
2018-12-11T19:33:11.249Z,5.03
2018-12-11T19:35:37.258Z,5.25
2018-12-11T19:38:04.915Z,6.03
2018-12-11T19:40:30.792Z,6.97
2018-12-11T19:43:06.791Z,7.60
2018-12-11T19:45:28.545Z,6.60
2018-12-11T19:47:54.468Z,7.37
2018-12-11T19:50:20.351Z,5.97
2018-12-11T19:52:46.261Z,5.20
2018-12-11T19:55:12.213Z,5.50
2018-12-11T19:57:38.102Z,5.90
2018-12-11T20:00:07.912Z,6.07
2018-12-11T20:02:33.816Z,7.28
2018-12-11T20:05:01.225Z,6.83
2018-12-11T20:07:27.121Z,6.58
2018-12-11T20:10:03.349Z,6.83
2018-12-11T20:12:29.337Z,7.97
2018-12-11T20:14:55.839Z,7.95
2018-12-11T20:17:21.922Z,6.33
2018-12-11T20:19:47.795Z,6.50
2018-12-11T20:22:13.736Z,6.43
2018-12-11T20:24:39.658Z,7.23
2018-12-11T20:27:05.605Z,6.93
2018-12-11T20:29:31.524Z,7.50
2018-12-11T20:31:57.434Z,7.60
2018-12-11T20:34:23.325Z,6.53
2018-12-11T20:36:53.385Z,6.50
2018-12-11T20:39:19.304Z,8.15
2018-12-11T20:41:45.835Z,7.87
2018-12-11T20:44:11.759Z,6.03
2018-12-11T20:46:41.255Z,19.40
2018-12-11T20:49:10.927Z,8.30
2018-12-11T20:51:37.146Z,6.00
2018-12-11T20:54:03.045Z,6.77
2018-12-11T20:56:29.939Z,6.13
2018-12-11T20:58:55.844Z,5.58
2018-12-11T21:01:21.766Z,6.07
2018-12-11T21:03:47.694Z,7.07
2018-12-11T21:06:13.603Z,5.70
2018-12-11T21:08:43.160Z,6.03
2018-12-11T21:11:09.064Z,7.10
2018-12-11T21:13:36.389Z,7.67
2018-12-11T21:16:02.397Z,8.30
2018-12-11T21:18:31.193Z,6.92
2018-12-11T21:20:59.258Z,6.80
2018-12-11T21:23:25.821Z,9.20
2018-12-11T21:25:51.780Z,9.50
2018-12-11T21:28:20.648Z,9.27
2018-12-11T21:30:46.572Z,7.35
2018-12-11T21:33:16.042Z,7.33
2018-12-11T21:35:42.142Z,6.70
2018-12-11T21:38:08.028Z,6.47
2018-12-11T21:40:33.932Z,7.17
2018-12-11T21:42:59.857Z,7.70
2018-12-11T21:45:26.884Z,15.57
2018-12-11T21:47:52.775Z,7.10
2018-12-11T21:50:22.084Z,10.13
2018-12-11T21:52:48.076Z,8.93
2018-12-11T21:55:17.877Z,11.85
2018-12-11T21:57:43.753Z,10.90
2018-12-11T22:00:11.471Z,10.43
2018-12-11T22:02:37.351Z,10.85
2018-12-11T22:05:07.057Z,9.37
2018-12-11T22:07:32.920Z,10.08
2018-12-11T22:10:00.638Z,9.30
2018-12-11T22:12:26.757Z,9.20
2018-12-11T22:14:52.655Z,8.70
2018-12-11T22:17:18.525Z,8.10
2018-12-11T22:19:44.453Z,7.23
2018-12-11T22:22:12.107Z,8.27
2018-12-11T22:24:37.999Z,7.20
2018-12-11T22:27:07.189Z,6.90
2018-12-11T22:29:33.058Z,7.28
2018-12-11T22:32:02.063Z,6.57
2018-12-11T22:34:28.279Z,5.92
2018-12-11T22:36:57.222Z,5.03
2018-12-11T22:39:23.818Z,5.92
2018-12-11T22:41:51.030Z,5.20
2018-12-11T22:44:16.900Z,5.50
2018-12-11T22:46:45.745Z,6.33
2018-12-11T22:49:13.646Z,4.55
2018-12-11T22:51:40.128Z,5.08
2018-12-11T22:54:06.265Z,5.25
2018-12-11T22:56:32.119Z,8.98
2018-12-11T22:58:58.100Z,4.03
2018-12-11T23:01:24.094Z,4.00
2018-12-11T23:03:53.529Z,4.97
2018-12-11T23:06:19.403Z,5.53
2018-12-11T23:08:48.628Z,4.67
2018-12-11T23:11:14.520Z,4.10
2018-12-11T23:13:42.237Z,4.00
2018-12-11T23:16:08.128Z,3.95
2018-12-11T23:18:37.595Z,4.00
2018-12-11T23:21:03.452Z,4.05
2018-12-11T23:23:31.254Z,4.40
2018-12-11T23:25:57.122Z,4.70
2018-12-11T23:28:23.022Z,3.60
2018-12-11T23:30:48.914Z,3.90
2018-12-11T23:33:14.917Z,3.80
2018-12-11T23:35:44.139Z,4.65
2018-12-11T23:38:10.008Z,3.92
2018-12-11T23:40:37.857Z,4.37
2018-12-11T23:43:03.875Z,3.87
2018-12-11T23:45:32.667Z,4.83
2018-12-11T23:47:58.591Z,4.10
2018-12-11T23:50:28.428Z,4.37
2018-12-11T23:52:58.100Z,4.30
2018-12-11T23:55:24.060Z,5.72
2018-12-11T23:57:49.905Z,4.10
